MME weather

Durham Tees Valley Airport
Durham, England, United Kingdom

Public forecast

Using degrees Celsius for public forecast. Weather courtesy of forecast.io.

METAR (pilot weather report)

Retrieved 2019/03/20 12:20 UTC (34 minutes ago):

EGNV 201220Z 19011KT 9999 FEW015 SCT027 12/09 Q1029

TAF (pilot weather forecast)

Forecast is more than 12 hours old.

Retrieved 2016/01/23 12:00 UTC (3 years ago):

TAF EGNV 231059Z 2312/2321 18008KT 9999 FEW030 PROB40 2319/2321 6000 RADZ BKN014